Latest Weather Observations for Devonport Airport

IDT60801

Issued at 11:02 am EDT Thursday 21 November 2019 (issued every 10 minutes, with the page automatically refreshed every 10 minutes)

About weather observations | Map of weather stations | Latest weather observations for TAS | Other Formats
Station Details ID: 091126 Name: DEVONPORT AIRPORT Lat: -41.17 Lon: 146.43 Height: 8.0 m
Data from the previous 72 hours. | See also: Recent months at Devonport Airport
Date/Time
EDT
Temp
°C
App
Temp
°C
Dew
Point
°C
Rel
Hum
%
Delta-T
°C
Wind Press
QNH
hPa
Press
MSL
hPa
Rain since
9am
mm
Dir  Spd
km/h
Gust
km/h
Spd
kts
Gust
kts
21/11:00am 22.5 21.4 13.0 55 5.5 NNE 11 15 6 8 1000.7 1000.7 0.0
21/10:30am 22.6 21.7 12.5 53 5.7 NNE 9 13 5 7 1001.3 1001.3 0.0
21/10:00am 22.7 22.0 13.2 55 5.5 S 9 15 5 8 1001.6 1001.6 0.0
21/09:30am 20.1 18.7 12.1 60 4.5 SSE 11 15 6 8 1001.8 1001.8 0.0
21/09:00am 18.1 15.7 11.4 65 3.7 SSE 15 19 8 10 1001.8 1001.8 0.0
21/08:30am 17.0 14.6 9.9 63 3.7 S 13 19 7 10 1002.4 1002.4 0.0
21/08:00am 15.8 12.9 9.5 66 3.3 SSE 15 17 8 9 1002.3 1002.3 0.0
21/07:30am 15.1 11.2 8.8 66 3.2 SSE 19 22 10 12 1002.2 1002.2 0.0
21/07:00am 14.0 10.4 8.4 69 2.8 S 17 22 9 12 1002.6 1002.6 0.0
21/06:30am 13.6 9.2 7.4 66 3.0 SSE 20 28 11 15 1002.4 1002.4 0.0
21/06:00am 13.6 9.9 8.0 69 2.8 S 17 20 9 11 1002.6 1002.6 0.0
21/05:30am 13.2 8.5 7.6 69 2.7 SSE 22 30 12 16 1002.7 1002.7 0.0
21/05:00am 13.1 9.3 9.2 77 2.0 SSE 19 22 10 12 1003.4 1003.4 0.0
21/04:30am 13.0 9.0 8.9 76 2.1 SSE 20 26 11 14 1003.3 1003.3 0.0
21/04:00am 13.0 9.0 8.1 72 2.4 SSE 19 26 10 14 1004.2 1004.2 0.0
21/03:30am 12.6 7.6 8.1 74 2.2 SSE 24 33 13 18 1004.8 1004.8 0.0
21/03:00am 12.2 7.7 7.1 71 2.5 SSE 20 26 11 14 1005.5 1005.5 0.0
21/02:30am 12.0 7.4 6.5 69 2.6 SSE 20 26 11 14 1006.3 1006.3 0.0
21/02:00am 12.4 7.5 7.1 70 2.6 SSE 22 24 12 13 1006.9 1006.9 0.0
21/01:30am 12.2 7.4 7.5 73 2.3 SSE 22 28 12 15 1007.6 1007.6 0.0
21/01:00am 11.7 7.3 7.4 75 2.1 SSE 20 26 11 14 1008.2 1008.2 0.0
21/12:30am 11.6 7.4 7.3 75 2.1 SSE 19 22 10 12 1009.4 1009.4 0.0
21/12:00am 11.9 7.7 7.4 74 2.2 SSE 19 22 10 12 1009.2 1009.2 0.0
 
Date/Time
EDT
Temp
°C
App
Temp
°C
Dew
Point
°C
Rel
Hum
%
Delta-T
°C
Wind Press
QNH
hPa
Press
MSL
hPa
Rain since
9am
mm
Dir  Spd
km/h
Gust
km/h
Spd
kts
Gust
kts
20/11:30pm 12.0 7.7 7.7 75 2.1 SSE 20 22 11 12 1009.7 1009.7 0.0
20/11:00pm 12.1 7.5 8.2 77 1.9 SSE 22 28 12 15 1010.1 1010.1 0.0
20/10:30pm 12.2 8.6 8.3 77 1.9 SSE 17 20 9 11 1010.9 1010.9 0.0
20/10:00pm 12.0 8.8 8.5 79 1.7 SSE 15 19 8 10 1011.7 1011.7 0.0
20/09:30pm 11.5 9.1 8.5 82 1.5 SSE 11 15 6 8 1011.7 1011.7 0.0
20/09:00pm 12.2 10.4 8.1 76 2.0 ESE 7 9 4 5 1011.7 1011.7 0.0
20/08:30pm 12.1 10.5 8.6 79 1.7 ESE 7 9 4 5 1011.9 1011.9 0.0
20/08:00pm 12.6 10.0 9.4 81 1.6 ENE 13 15 7 8 1012.0 1012.0 0.0
20/07:30pm 13.5 11.1 9.9 79 1.9 NE 13 17 7 9 1012.1 1012.1 0.0
20/07:00pm 13.7 10.9 10.1 79 1.9 NE 15 19 8 10 1012.1 1012.1 0.0
20/06:30pm 14.2 11.9 10.6 79 1.9 NE 13 17 7 9 1012.3 1012.3 0.0
20/06:00pm 14.4 12.2 10.8 79 1.9 NE 13 17 7 9 1012.2 1012.2 0.0
20/05:30pm 14.3 11.3 10.5 78 2.0 NE 17 19 9 10 1012.3 1012.3 0.0
20/05:00pm 14.2 11.6 10.6 79 1.9 NE 15 19 8 10 1013.0 1013.0 0.0
20/04:30pm 15.1 12.6 11.1 77 2.1 NNE 15 20 8 11 1013.3 1013.3 0.0
20/04:00pm 14.3 10.9 10.5 78 2.0 NNE 19 22 10 12 1013.6 1013.6 0.0
20/03:30pm 14.5 12.3 10.7 78 2.0 NE 13 19 7 10 1014.4 1014.4 0.0
20/03:00pm 14.0 10.9 10.4 79 1.9 NNE 17 20 9 11 1014.2 1014.2 0.0
20/02:30pm 14.3 11.6 10.3 77 2.1 NE 15 20 8 11 1014.5 1014.5 0.0
20/02:00pm 13.8 11.1 10.2 79 1.9 NNE 15 20 8 11 1015.0 1015.0 0.0
20/01:30pm 13.9 11.4 10.9 82 1.6 NE 15 20 8 11 1014.4 1014.4 0.0
20/01:00pm 14.3 12.0 10.3 77 2.1 NE 13 20 7 11 1015.4 1015.4 0.0
20/12:30pm 14.3 12.3 10.3 77 2.1 NNE 11 17 6 9 1015.7 1015.7 0.0
20/12:00pm 13.9 11.5 9.9 77 2.1 N 13 17 7 9 1016.6 1016.6 0.0
20/11:30am 14.9 12.0 10.9 77 2.1 N 17 20 9 11 1016.8 1016.8 0.0
20/11:00am 14.4 11.6 10.0 75 2.3 NNE 15 19 8 10 1016.7 1016.7 0.0
20/10:30am 14.0 10.5 10.2 78 2.0 NE 19 22 10 12 1016.1 1016.1 0.0
20/10:00am 14.6 11.4 10.0 74 2.4 NE 17 20 9 11 1016.4 1016.4 0.0
20/09:30am 14.7 11.3 10.7 77 2.1 NE 19 24 10 13 1016.6 1016.6 0.0
20/09:00am 14.6 10.6 10.6 77 2.1 NE 22 26 12 14 1016.6 1016.6 0.0
20/08:30am 13.7 10.0 10.1 79 1.9 NE 20 28 11 15 1016.7 1016.7 0.0
20/08:11am 13.7 10.5 9.9 78 2.0 ENE 17 24 9 13 1017.0 1017.0 0.0
20/08:00am 13.7 10.2 10.1 79 1.9 ENE 19 26 10 14 1016.8 1016.8 0.0
20/07:45am 13.3 9.7 9.7 79 1.8 ENE 19 26 10 14 1016.5 1016.5 0.0
20/07:30am 13.2 10.3 9.8 80 1.7 E 15 19 8 10 1016.7 1016.7 0.0
20/07:00am 13.0 10.4 9.4 79 1.8 E 13 19 7 10 1016.4 1016.4 0.0
20/06:30am 12.9 9.9 9.2 78 1.9 E 15 20 8 11 1016.1 1016.1 0.0
20/06:00am 12.7 9.6 9.0 78 1.9 E 15 20 8 11 1016.0 1016.0 0.0
20/05:30am 12.7 9.6 9.0 78 1.9 E 15 20 8 11 1015.4 1015.4 0.0
20/05:00am 12.6 10.2 8.7 77 1.9 E 11 17 6 9 1015.4 1015.4 0.0
20/04:30am 12.7 9.9 8.6 76 2.0 E 13 19 7 10 1015.8 1015.8 0.0
20/04:00am 12.8 9.7 8.7 76 2.0 E 15 20 8 11 1015.4 1015.4 0.0
20/03:30am 12.8 10.8 8.7 76 2.0 E 9 17 5 9 1015.5 1015.5 0.0
20/03:00am 12.9 10.1 8.6 75 2.1 E 13 19 7 10 1015.6 1015.6 0.0
20/02:30am 12.8 10.0 8.5 75 2.1 E 13 20 7 11 1015.9 1015.9 0.0
20/02:00am 12.6 9.4 8.3 75 2.1 E 15 20 8 11 1016.1 1016.1 0.0
20/01:30am 12.1 8.7 7.8 75 2.1 E 15 20 8 11 1016.3 1016.3 0.0
20/01:00am 12.0 7.8 7.5 74 2.2 E 19 28 10 15 1016.2 1016.2 0.0
20/12:30am 11.4 7.5 6.9 74 2.1 E 17 24 9 13 1016.2 1016.2 0.0
20/12:00am 12.2 6.7 7.5 73 2.3 ENE 26 33 14 18 1015.8 1015.8 0.0
 
Date/Time
EDT
Temp
°C
App
Temp
°C
Dew
Point
°C
Rel
Hum
%
Delta-T
°C
Wind Press
QNH
hPa
Press
MSL
hPa
Rain since
9am
mm
Dir  Spd
km/h
Gust
km/h
Spd
kts
Gust
kts
19/11:30pm 12.6 6.2 9.4 81 1.6 ENE 33 43 18 23 1015.2 1015.2 0.0
19/11:11pm 12.9 6.3 10.1 83 1.4 ENE 35 54 19 29 1014.6 1014.6 0.0
19/11:00pm 13.1 7.0 10.3 83 1.4 ENE 33 43 18 23 1014.5 1014.5 0.0
19/10:30pm 12.0 7.5 6.9 71 2.4 E 20 30 11 16 1014.2 1014.2 0.0
19/10:00pm 12.7 10.4 5.6 62 3.3 S 7 9 4 5 1013.6 1013.6 0.0
19/09:30pm 12.7 9.2 7.4 70 2.6 WNW 15 17 8 9 1013.1 1013.1 0.0
19/09:00pm 12.6 8.6 4.8 59 3.6 W 15 19 8 10 1012.5 1012.5 0.0
19/08:30pm 15.0 11.2 5.8 54 4.4 W 15 19 8 10 1012.4 1012.4 0.0
19/08:00pm 16.8 10.5 5.7 48 5.4 W 28 32 15 17 1012.0 1012.0 0.0
19/07:30pm 18.1 13.4 6.0 45 5.9 W 20 28 11 15 1011.8 1011.8 0.0
19/07:00pm 19.3 13.2 4.6 38 7.1 W 26 32 14 17 1011.4 1011.4 0.0
19/06:30pm 19.8 13.5 5.5 39 7.0 WNW 28 35 15 19 1011.1 1011.1 0.0
19/06:00pm 16.5 11.5 10.8 69 3.0 NW 28 35 15 19 1010.8 1010.8 0.0
19/05:30pm 16.7 10.7 10.8 68 3.2 NW 33 41 18 22 1010.6 1010.6 0.0
19/05:00pm 17.1 10.9 10.2 64 3.7 NW 33 43 18 23 1010.5 1010.5 0.0
19/04:30pm 17.1 11.1 10.2 64 3.7 NW 32 39 17 21 1010.3 1010.3 0.0
19/04:00pm 17.1 10.6 10.2 64 3.7 NW 35 44 19 24 1010.2 1010.2 0.0
19/03:30pm 17.9 11.0 9.0 56 4.6 NW 35 43 19 23 1010.2 1010.2 0.0
19/03:00pm 17.3 10.5 9.2 59 4.2 NW 35 44 19 24 1010.2 1010.2 0.0
19/02:30pm 17.8 11.5 9.7 59 4.3 NNW 33 43 18 23 1010.5 1010.5 0.0
19/02:00pm 18.9 13.2 9.7 55 4.9 NNW 30 35 16 19 1010.3 1010.3 0.0
19/01:30pm 17.8 11.7 9.7 59 4.3 NNW 32 35 17 19 1010.5 1010.5 0.0
19/01:00pm 18.2 11.8 7.0 48 5.6 NNW 30 37 16 20 1010.4 1010.4 0.0
19/12:30pm 17.2 11.6 8.6 57 4.4 NNW 28 35 15 19 1010.6 1010.6 0.0
19/12:00pm 17.0 11.3 8.4 57 4.4 NNW 28 33 15 18 1010.7 1010.7 0.0
19/11:30am 16.6 11.7 8.3 58 4.2 NW 24 30 13 16 1010.9 1010.9 0.0
19/11:00am 16.7 12.0 6.2 50 5.1 WNW 20 30 11 16 1010.7 1010.7 0.0
19/10:30am 17.8 12.5 5.1 43 6.1 SW 22 32 12 17 1010.9 1010.9 0.0
19/10:00am 16.3 11.2 4.0 44 5.7 SW 20 32 11 17 1010.9 1010.9 0.0
19/09:30am 16.3 11.0 5.0 47 5.4 SW 22 28 12 15 1010.7 1010.7 0.0
19/09:00am 15.2 11.4 5.7 53 4.5 SSW 15 20 8 11 1010.7 1010.7 0.0
19/08:30am 14.2 9.6 5.8 57 4.0 SW 19 24 10 13 1010.6 1010.6 0.0
19/08:00am 12.9 8.4 6.0 63 3.3 W 19 22 10 12 1010.3 1010.3 0.0
19/07:30am 11.8 9.8 6.1 68 2.7 WSW 6 15 3 8 1010.3 1010.3 0.0
19/07:00am 10.7 10.1 7.2 79 1.7 CALM 0 0 0 0 1010.0 1010.0 0.0
19/06:30am 8.5 7.4 5.3 80 1.4 CALM 0 6 0 3 1009.7 1009.7 0.0
19/06:00am 6.6 4.1 3.8 82 1.2 SSW 6 11 3 6 1009.2 1009.2 0.0
19/05:30am 7.9 4.8 5.5 85 1.1 SW 11 13 6 7 1008.6 1008.6 0.0
19/05:00am 5.9 2.6 4.4 90 0.6 W 11 13 6 7 1008.5 1008.5 0.0
19/04:30am 6.7 3.5 5.0 89 0.7 SW 11 13 6 7 1008.1 1008.1 0.0
19/04:00am 7.9 5.7 6.0 88 0.9 SSW 7 9 4 5 1007.8 1007.8 0.0
19/03:30am 9.8 7.7 8.1 89 0.8 WSW 9 13 5 7 1007.6 1007.6 0.0
19/03:00am 9.9 7.0 8.3 90 0.8 WSW 13 13 7 7 1007.6 1007.6 0.0
19/02:30am 10.2 7.0 8.5 89 0.8 WSW 15 17 8 9 1007.6 1007.6 0.0
19/02:00am 11.5 7.9 9.8 89 0.9 W 19 22 10 12 1007.5 1007.5 0.0
19/01:30am 11.9 8.5 10.5 91 0.7 WNW 19 22 10 12 1007.4 1007.4 0.0
19/01:00am 12.1 7.4 10.7 91 0.7 WNW 26 32 14 17 1007.4 1007.4 0.0
19/12:30am 12.3 7.2 10.7 90 0.8 WNW 28 32 15 17 1007.8 1007.8 0.0
19/12:00am 12.3 7.6 10.5 89 0.9 WNW 26 32 14 17 1007.8 1007.8 0.0
 
Date/Time
EDT
Temp
°C
App
Temp
°C
Dew
Point
°C
Rel
Hum
%
Delta-T
°C
Wind Press
QNH
hPa
Press
MSL
hPa
Rain since
9am
mm
Dir  Spd
km/h
Gust
km/h
Spd
kts
Gust
kts
18/11:30pm 12.4 7.0 10.8 90 0.8 WNW 30 37 16 20 1007.9 1007.9 0.0
18/11:00pm 12.4 6.6 10.8 90 0.8 WNW 32 37 17 20 1008.0 1008.0 0.0
18/10:30pm 12.5 6.6 10.6 88 1.0 WNW 32 41 17 22 1007.9 1007.9 0.0
18/10:00pm 12.6 6.8 10.7 88 1.0 WNW 32 39 17 21 1008.0 1008.0 0.0
18/09:30pm 12.8 7.0 10.7 87 1.1 WNW 32 39 17 21 1007.9 1007.9 0.0
18/09:00pm 12.8 6.9 10.5 86 1.2 WNW 32 41 17 22 1008.1 1008.1 0.0
18/08:30pm 13.2 7.7 10.6 84 1.4 WNW 30 37 16 20 1007.9 1007.9 0.0
18/08:00pm 13.9 8.2 9.9 77 2.1 WNW 30 39 16 21 1007.4 1007.4 0.0
18/07:30pm 14.0 7.4 10.0 77 2.1 WNW 35 44 19 24 1007.5 1007.5 0.0
18/07:00pm 14.3 8.0 9.7 74 2.4 WNW 33 43 18 23 1007.1 1007.1 0.0
18/06:30pm 15.7 9.0 8.2 61 3.8 W 33 44 18 24 1006.9 1006.9 0.0
18/06:00pm 16.2 9.3 8.7 61 3.8 W 35 50 19 27 1006.7 1006.7 0.0
18/05:30pm 16.8 10.1 8.0 56 4.5 W 33 41 18 22 1006.5 1006.5 0.0
18/05:00pm 15.6 8.4 9.1 65 3.3 WNW 37 46 20 25 1006.6 1006.6 0.0
18/04:30pm 16.5 9.4 9.7 64 3.6 WNW 37 46 20 25 1006.6 1006.6 0.0
18/04:00pm 16.0 8.5 9.4 65 3.4 WNW 39 48 21 26 1006.6 1006.6 0.0
18/03:30pm 16.3 8.7 9.0 62 3.8 WNW 39 48 21 26 1006.6 1006.6 0.0
18/03:00pm 16.1 8.4 8.6 61 3.8 WNW 39 50 21 27 1007.0 1007.0 0.0
18/02:30pm 16.3 8.5 9.7 65 3.4 WNW 41 50 22 27 1007.3 1007.3 0.0
18/02:14pm 17.1 9.2 8.0 55 4.6 W 39 50 21 27 1007.6 1007.6 0.0
18/02:09pm 17.2 9.4 8.4 56 4.5 WNW 39 50 21 27 1007.6 1007.6 0.0
18/02:00pm 16.0 8.4 9.0 63 3.6 WNW 39 52 21 28 1007.3 1007.3 0.0
18/01:30pm 17.1 9.7 8.3 56 4.5 W 37 46 20 25 1007.8 1007.8 0.0
18/01:00pm 16.3 7.8 8.5 60 4.0 WNW 43 56 23 30 1008.0 1008.0 0.0
18/12:30pm 17.2 9.4 9.6 61 4.0 WNW 41 50 22 27 1008.1 1008.1 0.0
18/12:08pm 17.5 9.3 8.1 54 4.8 WNW 41 59 22 32 1008.3 1008.3 0.0
18/12:00pm 16.3 7.9 8.8 61 3.9 WNW 43 52 23 28 1008.6 1008.6 0.0
18/11:30am 16.4 8.9 9.3 63 3.7 WNW 39 48 21 26 1008.9 1008.9 0.0

Other formats

Comma delimited format used in spreadsheet applications
http://www.bom.gov.au/fwo/IDT60801/IDT60801.95960.axf

JavaScript Object Notation format (JSON) in row-major order
http://www.bom.gov.au/fwo/IDT60801/IDT60801.95960.json

Data quality

Most of these data are generated automatically and are frequently updated. Quality checks on data are not normally performed. It is possible for incorrect values to appear. Refer to information at About Latest Weather Observations and please check the disclaimer before using these data.